Terminal Aerodrome Forecast
Issued by NWS

Home | Current Version | Previous Version | Graphics & Text | Print | Product List | Glossary On
Versions: 1 2 3 4 5 6 7 8 9 10 11 12 13
467
FTUS43 KGRB 090520
TAFMTW
TAF
KMTW 090520Z 0906/1006 33012KT 6SM -SN SCT025 OVC050
      TEMPO 0906/0910 4SM -SHSN OVC025
     FM091000 34012KT 6SM -SN BR SCT015 OVC040
      TEMPO 0910/0914 4SM -SN BKN015
     FM091400 33017G27KT P6SM OVC050
     FM100000 32012G20KT P6SM OVC080=

USA.gov is the U.S. government's official web portal to all federal, state and local government web resources and services.